King Salmon, AK

11:23 PM AKST on December 19, 2014 (GMT -0900)
King Salmon | Change Station
CLOSE
Current Station
Airport
Location: King Salmon,
Elevation: 46 ft
Nearby Weather Stations

Elev 46 ft 58.68 °N, 156.66 °W | Updated 29 minutes ago

Partly Cloudy
Partly Cloudy
35 °F
Feels Like 25 °F
N
16
Wind Variable Wind from NE

Today
High -- | Low -- °F
--% Chance of Precip.
Yesterday
High -- | Low -- °F
Precip. -- in
10:10 AM 4:53 PM
Waning Crescent, 4% visible
Pressure 28.90 in
Visibility 10.0 miles
Clouds Few 5000 ft
Windchill 25 °F
Dew Point 26 °F
Humidity 70%
Rainfall 0.00 in
Snow Depth Not available.
UV 0 out of 12
Pollen Not available.
Air Quality Not available.
Flu Activity Not available.
METAR PAKN 200754Z 04014KT 10SM FEW050 02/M03 A2890 RMK AO2 SLP787 T00171033

More Conditions Fewer Conditions

Pressure 28.90 in
Visibility 10.0 miles
Clouds Few 5000 ft
Windchill 25 °F
Dew Point 26 °F
Humidity 70%
Rainfall 0.00 in
Snow Depth Not available.
UV 0 out of 12
Pollen Not available.
Air Quality Not available.
Flu Activity Not available.
METAR PAKN 200754Z 04014KT 10SM FEW050 02/M03 A2890 RMK AO2 SLP787 T00171033

More Conditions Fewer Conditions

10-Day Weather Forecast

Almanac

Astronomy

Dec. 19, 2014 Rise Set
Actual Time
Civil Twilight
Nautical Twilight
Astronomical Twilight
Moon
Length of Visible Light
Length of Day
Tomorrow will be .
, % of the Moon is Illuminated

Today's Extremes

State Highs State Lows

Community

WunderPhotos

Upload Photos

1,779,146 photos uploaded!

WunderBlogs® & News

Nearby

Air Quality

  Air Quality AQ Index Pollutant
Not available.

Snow Depth

Station Depth Elevation

Earthquake Activity

City Distance Mag. Time & Date
Minimum magnitude displayed is 2.5.

Coastal Water Temperatures

Place Temperature

Nearby Weather Stations